createdAt,value
2018-12-20T00:00:20.196Z,20.80
2018-12-20T00:02:47.732Z,21.63
2018-12-20T00:05:15.844Z,20.73
2018-12-20T00:07:43.770Z,20.03
2018-12-20T00:10:11.613Z,20.83
2018-12-20T00:12:40.195Z,21.40
2018-12-20T00:15:07.874Z,21.07
2018-12-20T00:17:41.496Z,23.17
2018-12-20T00:20:09.114Z,23.43
2018-12-20T00:22:37.151Z,21.03
2018-12-20T00:25:05.295Z,20.30
2018-12-20T00:27:33.214Z,21.00
2018-12-20T00:30:02.466Z,20.77
2018-12-20T00:32:29.916Z,20.57
2018-12-20T00:34:57.554Z,20.70
2018-12-20T00:37:25.160Z,21.37
2018-12-20T00:39:52.762Z,21.03
2018-12-20T00:42:20.309Z,20.50
2018-12-20T00:44:47.912Z,19.73
2018-12-20T00:47:17.062Z,22.30
2018-12-20T00:49:46.399Z,21.07
2018-12-20T00:52:14.190Z,21.60
2018-12-20T00:54:41.731Z,19.27
2018-12-20T00:57:11.597Z,21.20
2018-12-20T00:59:39.343Z,20.60
2018-12-20T01:02:08.059Z,19.53
2018-12-20T01:04:35.744Z,20.63
2018-12-20T01:07:03.771Z,18.73
2018-12-20T01:09:31.362Z,18.33
2018-12-20T01:11:59.747Z,19.17
2018-12-20T01:14:27.330Z,20.90
2018-12-20T01:16:55.141Z,19.80
2018-12-20T01:19:22.655Z,20.23
2018-12-20T01:21:50.703Z,22.33
2018-12-20T01:24:18.269Z,20.07
2018-12-20T01:26:48.957Z,23.13
2018-12-20T01:29:17.061Z,22.90
2018-12-20T01:31:44.583Z,22.67
2018-12-20T01:34:12.283Z,20.20
2018-12-20T01:36:39.896Z,20.87
2018-12-20T01:39:08.195Z,20.80
2018-12-20T01:41:35.979Z,20.00
2018-12-20T01:44:03.534Z,19.70
2018-12-20T01:46:31.398Z,21.60
2018-12-20T01:48:58.974Z,21.83
2018-12-20T01:51:26.466Z,21.73
2018-12-20T01:53:54.290Z,21.33
2018-12-20T01:56:22.087Z,23.33
2018-12-20T01:58:49.659Z,23.87
2018-12-20T02:01:17.190Z,21.60
2018-12-20T02:03:44.981Z,21.47
2018-12-20T02:06:12.541Z,22.20
2018-12-20T02:08:40.021Z,19.57
2018-12-20T02:11:07.555Z,22.20
2018-12-20T02:13:35.439Z,20.90
2018-12-20T02:16:03.287Z,22.40
2018-12-20T02:18:30.774Z,22.63
2018-12-20T02:20:58.303Z,19.97
2018-12-20T02:23:26.114Z,21.80
2018-12-20T02:25:53.837Z,20.87
2018-12-20T02:28:21.455Z,19.73
2018-12-20T02:30:49.035Z,19.67
2018-12-20T02:33:16.650Z,21.80
2018-12-20T02:35:45.371Z,22.40
2018-12-20T02:38:12.973Z,20.90
2018-12-20T02:40:41.387Z,19.53
2018-12-20T02:43:09.166Z,19.40
2018-12-20T02:45:37.475Z,18.40
2018-12-20T02:48:05.374Z,18.00
2018-12-20T02:50:33.178Z,20.07
2018-12-20T02:53:00.910Z,19.53
2018-12-20T02:55:29.169Z,21.23
2018-12-20T02:57:56.879Z,20.10
2018-12-20T03:00:24.681Z,19.50
2018-12-20T03:02:52.969Z,19.13
2018-12-20T03:05:20.503Z,20.90
2018-12-20T03:07:48.399Z,21.90
2018-12-20T03:10:16.026Z,19.20
2018-12-20T03:12:43.752Z,20.90
2018-12-20T03:15:19.711Z,21.20
2018-12-20T03:17:40.758Z,19.70
2018-12-20T03:20:08.444Z,21.13
2018-12-20T03:22:35.934Z,19.00
2018-12-20T03:25:03.952Z,19.90
2018-12-20T03:27:31.656Z,19.37
2018-12-20T03:29:59.401Z,19.43
2018-12-20T03:32:27.665Z,18.50
2018-12-20T03:34:55.534Z,19.40
2018-12-20T03:37:23.185Z,20.37
2018-12-20T03:39:50.694Z,19.13
2018-12-20T03:42:18.247Z,20.00
2018-12-20T03:44:45.769Z,19.67
2018-12-20T03:47:13.299Z,18.40
2018-12-20T03:49:40.909Z,18.23
2018-12-20T03:52:08.343Z,17.47
2018-12-20T03:54:35.845Z,18.60
2018-12-20T03:57:03.457Z,19.43
2018-12-20T03:59:30.957Z,18.50
2018-12-20T04:01:58.572Z,17.20
2018-12-20T04:04:27.104Z,18.60
2018-12-20T04:06:54.973Z,18.80
2018-12-20T04:09:22.624Z,18.70
2018-12-20T04:11:50.290Z,18.10
2018-12-20T04:14:17.895Z,18.37
2018-12-20T04:16:45.372Z,17.60
2018-12-20T04:32:12.689Z,16.60
2018-12-20T04:34:40.451Z,16.73
2018-12-20T04:37:08.018Z,17.23
2018-12-20T04:39:35.488Z,18.20
2018-12-20T04:42:03.734Z,18.30
2018-12-20T04:44:31.457Z,17.47
2018-12-20T04:46:59.685Z,18.93
2018-12-20T04:49:27.987Z,20.10
2018-12-20T04:51:57.466Z,19.27
2018-12-20T04:54:29.976Z,18.60
2018-12-20T04:56:57.445Z,18.87
2018-12-20T04:59:25.342Z,19.77
2018-12-20T05:01:55.888Z,19.87
2018-12-20T05:04:23.803Z,18.80
2018-12-20T05:06:52.167Z,18.60
2018-12-20T05:09:19.831Z,19.00
2018-12-20T05:11:48.268Z,18.83
2018-12-20T05:14:16.664Z,19.80
2018-12-20T05:16:44.321Z,18.87
2018-12-20T05:19:11.852Z,18.83
2018-12-20T05:21:39.973Z,18.17
2018-12-20T05:24:07.420Z,17.10
2018-12-20T05:26:34.869Z,16.43
2018-12-20T05:29:02.461Z,18.90
2018-12-20T05:31:30.094Z,18.77
2018-12-20T05:33:57.694Z,17.73
2018-12-20T05:36:25.412Z,17.33
2018-12-20T05:38:53.647Z,18.77
2018-12-20T05:41:21.103Z,17.23
2018-12-20T05:43:48.778Z,17.97
2018-12-20T05:46:16.389Z,16.67
2018-12-20T05:48:44.133Z,17.10
2018-12-20T05:51:11.770Z,18.10
2018-12-20T05:53:39.417Z,19.10
2018-12-20T05:56:06.873Z,18.40
2018-12-20T05:58:34.601Z,18.33
2018-12-20T06:01:02.309Z,18.37
2018-12-20T06:03:29.811Z,16.93
2018-12-20T06:05:57.275Z,18.73
2018-12-20T06:08:24.685Z,19.13
2018-12-20T06:10:52.515Z,19.50
2018-12-20T06:13:20.144Z,17.67
2018-12-20T06:15:48.134Z,18.40
2018-12-20T06:18:16.297Z,18.80
2018-12-20T06:20:44.631Z,17.67
2018-12-20T06:23:12.288Z,19.57
2018-12-20T06:25:40.030Z,17.67
2018-12-20T06:28:07.505Z,18.60
2018-12-20T06:30:35.694Z,17.80
2018-12-20T06:33:03.258Z,17.80
2018-12-20T06:35:30.755Z,19.33
2018-12-20T06:37:58.352Z,20.00
2018-12-20T06:40:26.536Z,17.80
2018-12-20T06:42:54.092Z,17.87
2018-12-20T06:45:21.586Z,17.07
2018-12-20T06:47:49.176Z,16.53
2018-12-20T06:50:16.670Z,15.90
2018-12-20T06:52:44.835Z,17.73
2018-12-20T06:55:12.566Z,18.90
2018-12-20T06:57:40.160Z,18.07
2018-12-20T07:00:08.553Z,17.80
2018-12-20T07:02:36.151Z,17.00
2018-12-20T07:05:04.231Z,17.27
2018-12-20T07:07:31.765Z,17.40
2018-12-20T07:09:59.225Z,19.03
2018-12-20T07:12:27.384Z,19.07
2018-12-20T07:14:55.485Z,22.03
2018-12-20T07:17:23.138Z,18.33
2018-12-20T07:19:51.272Z,18.60
2018-12-20T07:22:18.734Z,18.70
2018-12-20T07:24:46.248Z,18.50
2018-12-20T07:27:13.685Z,18.13
2018-12-20T07:29:41.739Z,19.10
2018-12-20T07:32:09.142Z,16.30
2018-12-20T07:34:36.775Z,17.83
2018-12-20T07:37:04.318Z,17.97
2018-12-20T07:39:32.452Z,17.67
2018-12-20T07:42:00.111Z,16.97
2018-12-20T07:44:27.542Z,17.47
2018-12-20T07:46:55.031Z,17.83
2018-12-20T07:49:23.273Z,19.63
2018-12-20T07:51:51.086Z,19.40
2018-12-20T07:54:18.718Z,17.60
2018-12-20T07:56:46.155Z,17.97
2018-12-20T07:59:13.689Z,18.67
2018-12-20T08:01:41.269Z,19.70
2018-12-20T08:04:08.707Z,19.53
2018-12-20T08:06:36.090Z,17.13
2018-12-20T08:09:06.881Z,15.40
2018-12-20T08:11:35.039Z,16.10
2018-12-20T08:14:02.905Z,16.37
2018-12-20T08:16:30.278Z,18.17
2018-12-20T08:18:57.650Z,16.27
2018-12-20T08:21:25.101Z,15.13
2018-12-20T08:23:52.582Z,15.73
2018-12-20T08:26:20.011Z,15.20
2018-12-20T08:28:47.417Z,16.60
2018-12-20T08:31:16.093Z,15.37
2018-12-20T08:33:43.554Z,14.93
2018-12-20T08:36:11.239Z,14.77
2018-12-20T08:38:38.724Z,14.23
2018-12-20T08:41:06.257Z,14.60
2018-12-20T08:43:33.871Z,14.43
2018-12-20T08:46:01.493Z,14.90
2018-12-20T08:48:28.958Z,16.60
2018-12-20T08:50:56.478Z,15.33
2018-12-20T08:53:24.129Z,14.13
2018-12-20T08:55:51.590Z,14.80
2018-12-20T08:58:20.161Z,14.20
2018-12-20T09:00:48.294Z,14.17
2018-12-20T09:03:15.857Z,14.53
2018-12-20T09:05:43.474Z,14.40
2018-12-20T09:08:10.962Z,12.93
2018-12-20T09:10:38.724Z,15.07
2018-12-20T09:13:09.769Z,14.17
2018-12-20T09:15:35.595Z,18.50
2018-12-20T09:18:03.266Z,13.70
2018-12-20T09:20:32.836Z,13.73
2018-12-20T09:23:00.522Z,12.90
2018-12-20T09:25:27.949Z,13.37
2018-12-20T09:27:55.407Z,14.70
2018-12-20T09:30:30.278Z,13.30
2018-12-20T09:32:52.392Z,12.70
2018-12-20T09:35:19.854Z,12.77
2018-12-20T09:37:47.307Z,13.57
2018-12-20T09:40:14.863Z,44.47
2018-12-20T09:42:42.360Z,21.43
2018-12-20T09:45:09.838Z,13.17
2018-12-20T09:47:43.124Z,11.93
2018-12-20T09:50:10.590Z,11.17
2018-12-20T09:52:38.046Z,11.50
2018-12-20T09:55:05.719Z,10.07
2018-12-20T09:57:35.146Z,10.50
2018-12-20T10:00:03.352Z,9.80
2018-12-20T10:02:30.849Z,9.70
2018-12-20T10:04:58.425Z,10.10
2018-12-20T10:07:26.131Z,10.27
2018-12-20T10:09:53.591Z,9.70
2018-12-20T10:12:20.969Z,8.93
2018-12-20T10:14:48.856Z,9.50
2018-12-20T10:17:19.955Z,10.20
2018-12-20T10:19:48.522Z,9.50
2018-12-20T10:22:16.197Z,9.40
2018-12-20T10:24:43.679Z,9.77
2018-12-20T10:27:11.213Z,9.00
2018-12-20T10:29:38.714Z,9.43
2018-12-20T10:32:06.336Z,9.70
2018-12-20T10:34:33.844Z,8.97
2018-12-20T10:37:01.401Z,9.30
2018-12-20T10:39:28.847Z,7.67
2018-12-20T10:41:56.508Z,7.33
2018-12-20T10:44:24.011Z,6.57
2018-12-20T10:46:51.535Z,6.10
2018-12-20T10:49:19.059Z,5.63
2018-12-20T10:51:47.325Z,5.90
2018-12-20T10:54:14.794Z,6.50
2018-12-20T10:56:42.963Z,5.93
2018-12-20T10:59:10.573Z,5.53
2018-12-20T11:01:43.782Z,5.20
2018-12-20T11:04:21.874Z,6.70
2018-12-20T11:06:55.590Z,6.03
2018-12-20T11:09:29.109Z,5.87
2018-12-20T11:12:02.329Z,6.57
2018-12-20T11:14:29.912Z,5.13
2018-12-20T11:16:57.410Z,6.10
2018-12-20T11:19:24.971Z,5.80
2018-12-20T11:21:52.526Z,5.87
2018-12-20T11:24:20.393Z,5.33
2018-12-20T11:26:48.567Z,5.83
2018-12-20T11:29:16.384Z,6.27
2018-12-20T11:31:43.943Z,5.93
2018-12-20T11:34:11.540Z,5.70
2018-12-20T11:36:39.570Z,5.70
2018-12-20T11:39:08.456Z,5.23
2018-12-20T11:41:36.530Z,5.10
2018-12-20T11:44:04.476Z,5.87
2018-12-20T11:46:32.566Z,5.60
2018-12-20T11:49:00.271Z,5.57
2018-12-20T11:51:27.836Z,4.47
2018-12-20T11:53:55.396Z,4.27
2018-12-20T11:56:23.443Z,4.33
2018-12-20T11:58:50.943Z,3.90
2018-12-20T12:01:18.491Z,3.60
2018-12-20T12:03:45.959Z,3.57
2018-12-20T12:06:13.495Z,4.03
2018-12-20T12:08:40.953Z,3.33
2018-12-20T12:11:09.302Z,3.00
2018-12-20T12:13:37.366Z,2.57
2018-12-20T12:16:04.994Z,2.67
2018-12-20T12:18:32.478Z,5.37
2018-12-20T12:21:00.048Z,3.53
2018-12-20T12:23:27.619Z,2.20
2018-12-20T12:25:55.069Z,1.80
2018-12-20T12:28:22.651Z,2.17
2018-12-20T12:30:50.207Z,2.10
2018-12-20T12:33:18.492Z,1.63
2018-12-20T12:35:46.090Z,1.40
2018-12-20T12:38:13.528Z,1.60
2018-12-20T12:40:41.188Z,1.83
2018-12-20T12:43:08.910Z,1.80
2018-12-20T12:45:36.404Z,1.83
2018-12-20T12:48:04.141Z,3.20
2018-12-20T12:50:31.960Z,2.70
2018-12-20T12:52:59.522Z,2.87
2018-12-20T12:55:26.990Z,1.53
2018-12-20T12:58:04.250Z,1.80
2018-12-20T13:00:26.033Z,1.37
2018-12-20T13:02:53.509Z,2.07
2018-12-20T13:05:21.200Z,2.43
2018-12-20T13:07:49.441Z,1.97
2018-12-20T13:10:16.905Z,1.57
2018-12-20T13:12:44.570Z,1.30
2018-12-20T13:15:12.217Z,1.60
2018-12-20T13:17:40.460Z,1.40
2018-12-20T13:20:09.935Z,1.60
2018-12-20T13:22:38.313Z,1.40
2018-12-20T13:25:07.052Z,1.33
2018-12-20T13:27:34.581Z,1.80
2018-12-20T13:30:02.343Z,1.47
2018-12-20T13:32:29.830Z,1.83
2018-12-20T13:34:57.327Z,1.20
2018-12-20T13:37:24.959Z,2.03
2018-12-20T13:40:08.456Z,2.80
2018-12-20T13:42:39.539Z,2.70
2018-12-20T13:45:08.456Z,1.57
2018-12-20T13:47:36.244Z,2.00
2018-12-20T13:50:09.969Z,1.83
2018-12-20T13:52:38.964Z,1.67
2018-12-20T13:55:06.667Z,2.43
2018-12-20T13:57:39.644Z,1.60
2018-12-20T14:00:12.473Z,2.20
2018-12-20T14:02:40.435Z,2.03
2018-12-20T14:05:08.572Z,1.90
2018-12-20T14:07:39.342Z,2.50
2018-12-20T14:10:10.308Z,1.60
2018-12-20T14:12:39.867Z,2.20
2018-12-20T14:15:08.734Z,2.23
2018-12-20T14:17:37.849Z,2.10
2018-12-20T14:20:08.362Z,2.07
2018-12-20T14:22:37.332Z,2.17
2018-12-20T14:25:06.732Z,2.10
2018-12-20T14:27:34.347Z,2.50
2018-12-20T14:30:01.988Z,2.63
2018-12-20T14:32:31.206Z,2.83
2018-12-20T14:35:01.097Z,3.10
2018-12-20T14:37:29.263Z,1.93
2018-12-20T14:39:58.162Z,2.07
2018-12-20T14:42:29.548Z,2.50
2018-12-20T14:44:58.036Z,2.40
2018-12-20T14:47:26.218Z,1.73
2018-12-20T14:49:55.718Z,2.00
2018-12-20T14:52:26.820Z,2.33
2018-12-20T14:54:55.968Z,2.07
2018-12-20T14:57:23.672Z,2.40
2018-12-20T14:59:51.680Z,2.33
2018-12-20T15:02:19.280Z,1.90
2018-12-20T15:04:47.108Z,2.63
2018-12-20T15:08:39.991Z,2.20
2018-12-20T15:11:07.984Z,2.07
2018-12-20T15:13:37.973Z,3.27
2018-12-20T15:16:05.614Z,2.57
2018-12-20T15:18:33.154Z,2.50
2018-12-20T15:21:00.723Z,2.67
2018-12-20T15:23:31.442Z,3.30
2018-12-20T15:26:00.765Z,2.50
2018-12-20T15:28:28.485Z,2.80
2018-12-20T15:30:55.969Z,2.90
2018-12-20T15:33:24.085Z,3.17
2018-12-20T15:35:52.155Z,4.27
2018-12-20T15:38:20.498Z,3.90
2018-12-20T15:40:48.244Z,4.03
2018-12-20T15:43:16.391Z,4.27
2018-12-20T15:45:44.667Z,4.07
2018-12-20T15:48:15.602Z,3.77
2018-12-20T15:50:43.407Z,3.90
2018-12-20T15:53:11.969Z,4.00
2018-12-20T15:55:40.409Z,3.80
2018-12-20T15:58:08.987Z,3.13
2018-12-20T16:00:36.580Z,3.73
2018-12-20T16:03:04.341Z,3.87
2018-12-20T16:05:31.968Z,3.23
2018-12-20T16:08:05.050Z,4.20
2018-12-20T16:10:33.133Z,5.90
2018-12-20T16:13:00.707Z,4.30
2018-12-20T16:15:29.229Z,4.47
2018-12-20T16:17:56.678Z,4.40
2018-12-20T16:20:24.894Z,5.20
2018-12-20T16:22:52.552Z,4.70
2018-12-20T16:25:20.331Z,5.70
2018-12-20T16:27:47.936Z,6.00
2018-12-20T16:30:22.048Z,6.10
2018-12-20T16:32:49.535Z,6.37
2018-12-20T16:35:17.162Z,5.40
2018-12-20T16:37:52.737Z,6.50
2018-12-20T16:40:22.319Z,7.87
2018-12-20T16:42:49.845Z,4.70
2018-12-20T16:45:17.452Z,4.30
2018-12-20T16:47:45.008Z,4.80
2018-12-20T16:50:14.295Z,5.43
2018-12-20T16:52:41.977Z,4.83
2018-12-20T16:55:10.186Z,4.53
2018-12-20T16:57:37.893Z,4.10
2018-12-20T17:00:07.870Z,4.73
2018-12-20T17:02:35.530Z,4.63
2018-12-20T17:05:03.354Z,5.07
2018-12-20T17:07:30.845Z,4.97
2018-12-20T17:09:58.466Z,4.53
2018-12-20T17:12:27.154Z,4.83
2018-12-20T17:14:55.014Z,4.37
2018-12-20T17:17:22.479Z,4.80
2018-12-20T17:19:50.925Z,4.50
2018-12-20T17:22:18.573Z,4.23
2018-12-20T17:24:46.172Z,4.73
2018-12-20T17:27:13.710Z,3.33
2018-12-20T17:29:41.203Z,4.13
2018-12-20T17:32:08.962Z,4.00
2018-12-20T17:34:36.648Z,3.40
2018-12-20T17:37:04.198Z,5.33
2018-12-20T17:39:31.810Z,4.47
2018-12-20T17:41:59.401Z,3.63
2018-12-20T17:44:27.615Z,4.30
2018-12-20T17:46:55.006Z,4.20
2018-12-20T17:49:30.315Z,4.53
2018-12-20T17:51:52.139Z,5.03
2018-12-20T17:54:19.801Z,4.97
2018-12-20T17:56:47.344Z,4.70
2018-12-20T17:59:14.793Z,4.50
2018-12-20T18:01:42.460Z,4.90
2018-12-20T18:04:10.559Z,3.77
2018-12-20T18:06:39.047Z,4.30
2018-12-20T18:09:08.024Z,4.30
2018-12-20T18:11:36.590Z,3.70
2018-12-20T18:14:04.386Z,3.90
2018-12-20T18:16:32.135Z,3.73
2018-12-20T18:18:59.761Z,4.13
2018-12-20T18:21:27.473Z,3.80
2018-12-20T18:23:55.174Z,4.07
2018-12-20T18:26:22.764Z,3.00
2018-12-20T18:28:50.612Z,4.43
2018-12-20T18:31:18.107Z,4.10
2018-12-20T18:33:45.952Z,4.27
2018-12-20T18:36:14.368Z,4.50
2018-12-20T18:38:41.954Z,5.23
2018-12-20T18:41:09.616Z,5.50
2018-12-20T18:43:37.315Z,5.50
2018-12-20T18:46:05.853Z,5.40
2018-12-20T18:48:33.410Z,4.87
2018-12-20T18:51:01.076Z,4.70
2018-12-20T18:53:28.574Z,4.13
2018-12-20T18:55:56.699Z,4.63
2018-12-20T18:58:24.954Z,3.90
2018-12-20T19:00:52.645Z,4.10
2018-12-20T19:03:20.142Z,4.80
2018-12-20T19:05:47.863Z,4.17
2018-12-20T19:08:15.400Z,4.60
2018-12-20T19:10:43.661Z,6.87
2018-12-20T19:13:11.975Z,6.00
2018-12-20T19:15:43.251Z,4.60
2018-12-20T19:18:10.806Z,5.17
2018-12-20T19:20:39.863Z,4.27
2018-12-20T19:23:07.571Z,4.87
2018-12-20T19:25:40.887Z,6.77
2018-12-20T19:28:11.050Z,4.83
2018-12-20T19:30:38.757Z,6.00
2018-12-20T19:33:11.174Z,4.87
2018-12-20T19:35:40.452Z,5.13
2018-12-20T19:38:20.279Z,5.50
2018-12-20T19:40:42.314Z,4.77
2018-12-20T19:43:10.082Z,5.10
2018-12-20T19:45:45.829Z,5.87
2018-12-20T19:48:07.584Z,6.03
2018-12-20T19:50:37.295Z,5.20
2018-12-20T19:53:05.699Z,5.43
2018-12-20T19:55:34.579Z,5.70
2018-12-20T19:58:02.135Z,4.40
2018-12-20T20:00:35.284Z,5.40
2018-12-20T20:03:04.465Z,5.37
2018-12-20T20:05:32.171Z,5.30
2018-12-20T20:08:00.451Z,5.43
2018-12-20T20:10:28.170Z,4.93
2018-12-20T20:12:57.015Z,5.77
2018-12-20T20:15:37.802Z,6.53
2018-12-20T20:18:07.222Z,5.30
2018-12-20T20:20:36.359Z,7.43
2018-12-20T20:23:04.453Z,6.63
2018-12-20T20:25:31.956Z,8.30
2018-12-20T20:28:01.346Z,8.07
2018-12-20T20:30:29.425Z,6.70
2018-12-20T20:33:16.663Z,8.10
2018-12-20T20:35:46.119Z,7.30
2018-12-20T20:38:13.915Z,6.63
2018-12-20T20:40:43.733Z,7.43
2018-12-20T20:43:11.378Z,6.93
2018-12-20T20:45:38.963Z,9.60
2018-12-20T20:48:07.246Z,9.17
2018-12-20T20:50:34.794Z,5.03
2018-12-20T20:53:02.563Z,6.20
2018-12-20T20:55:30.205Z,6.50
2018-12-20T20:57:58.025Z,6.33
2018-12-20T21:00:25.640Z,4.63
2018-12-20T21:02:55.019Z,4.80
2018-12-20T21:05:22.689Z,8.67
2018-12-20T21:07:50.450Z,7.17
2018-12-20T21:10:18.067Z,6.60
2018-12-20T21:12:45.727Z,6.60
2018-12-20T21:15:13.804Z,5.87
2018-12-20T21:17:41.416Z,6.03
2018-12-20T21:20:11.925Z,5.60
2018-12-20T21:22:39.525Z,5.10
2018-12-20T21:25:07.276Z,6.33
2018-12-20T21:27:35.021Z,5.80
2018-12-20T21:30:02.825Z,5.00
2018-12-20T21:32:37.012Z,4.67
2018-12-20T21:35:06.674Z,4.70
2018-12-20T21:37:34.296Z,4.33
2018-12-20T21:40:02.613Z,3.83
2018-12-20T21:42:32.493Z,5.00
2018-12-20T21:45:00.363Z,4.27
2018-12-20T21:47:28.494Z,4.63
2018-12-20T21:49:56.693Z,5.67
2018-12-20T21:52:24.448Z,4.27
2018-12-20T21:54:52.230Z,4.30
2018-12-20T21:57:21.618Z,4.43
2018-12-20T21:59:49.314Z,4.37
2018-12-20T22:02:18.117Z,5.00
2018-12-20T22:04:46.394Z,4.23
2018-12-20T22:07:14.998Z,5.13
2018-12-20T22:09:43.137Z,6.43
2018-12-20T22:12:10.772Z,5.30
2018-12-20T22:14:38.487Z,5.37
2018-12-20T22:17:06.638Z,4.43
2018-12-20T22:19:34.257Z,4.60
2018-12-20T22:22:01.921Z,4.67
2018-12-20T22:24:29.486Z,4.83
2018-12-20T22:26:57.136Z,4.97
2018-12-20T22:29:26.909Z,4.80
2018-12-20T22:31:55.057Z,5.43
2018-12-20T22:34:22.614Z,4.40
2018-12-20T22:36:51.208Z,5.57
2018-12-20T22:39:19.344Z,4.97
2018-12-20T22:41:48.167Z,4.47
2018-12-20T22:44:15.917Z,5.20
2018-12-20T22:46:43.448Z,5.00
2018-12-20T23:02:18.252Z,4.50
2018-12-20T23:04:48.358Z,4.00
2018-12-20T23:07:16.205Z,4.33
2018-12-20T23:09:44.666Z,4.33
2018-12-20T23:12:12.889Z,4.27
2018-12-20T23:14:41.932Z,4.00
2018-12-20T23:17:10.539Z,4.37
2018-12-20T23:19:41.080Z,4.00
2018-12-20T23:22:08.809Z,5.23
2018-12-20T23:24:36.972Z,4.70
2018-12-20T23:27:04.934Z,4.17
2018-12-20T23:29:33.330Z,4.83
2018-12-20T23:32:00.945Z,5.03
2018-12-20T23:34:28.465Z,5.40
2018-12-20T23:36:56.018Z,5.20
2018-12-20T23:39:23.717Z,5.03
2018-12-20T23:41:55.454Z,6.60
2018-12-20T23:44:25.196Z,4.70
2018-12-20T23:46:52.918Z,5.20
2018-12-20T23:49:20.484Z,6.23
2018-12-20T23:51:48.364Z,4.87
2018-12-20T23:54:16.183Z,4.70
2018-12-20T23:56:43.716Z,5.00
2018-12-20T23:59:11.242Z,5.20
